sensor_id;sensor_type;location;lat;lon;timestamp;pressure;altitude;pressure_sealevel;temperature;humidity
10482;BME280;5288;42.334;23.876;2022-09-09T00:00:23;56185.81;;;-140.56;76.53
10482;BME280;5288;42.334;23.876;2022-09-09T00:03:01;56225.31;;;-140.56;76.51
10482;BME280;5288;42.334;23.876;2022-09-09T00:05:32;56195.69;;;-140.56;76.61
10482;BME280;5288;42.334;23.876;2022-09-09T00:08:04;56239.16;;;-140.56;76.68
10482;BME280;5288;42.334;23.876;2022-09-09T00:10:38;56237.19;;;-140.56;76.98
10482;BME280;5288;42.334;23.876;2022-09-09T00:13:15;56177.91;;;-140.56;77.15
10482;BME280;5288;42.334;23.876;2022-09-09T00:15:49;56201.63;;;-140.56;77.06
10482;BME280;5288;42.334;23.876;2022-09-09T00:18:24;56199.63;;;-140.56;77.51
10482;BME280;5288;42.334;23.876;2022-09-09T00:20:58;56199.63;;;-140.56;77.69
10482;BME280;5288;42.334;23.876;2022-09-09T00:23:30;56211.50;;;-140.56;77.91
10482;BME280;5288;42.334;23.876;2022-09-09T00:26:04;56207.53;;;-140.56;77.60
10482;BME280;5288;42.334;23.876;2022-09-09T00:28:39;56201.63;;;-140.56;77.68
10482;BME280;5288;42.334;23.876;2022-09-09T00:31:12;56189.75;;;-140.56;77.81
10482;BME280;5288;42.334;23.876;2022-09-09T00:33:40;56203.59;;;-140.56;77.88
10482;BME280;5288;42.334;23.876;2022-09-09T00:36:13;56201.63;;;-140.56;77.82
10482;BME280;5288;42.334;23.876;2022-09-09T00:38:44;56213.47;;;-140.56;77.73
10482;BME280;5288;42.334;23.876;2022-09-09T00:41:20;56227.31;;;-140.56;77.34
10482;BME280;5288;42.334;23.876;2022-09-09T00:43:56;56219.41;;;-140.56;77.19
10482;BME280;5288;42.334;23.876;2022-09-09T00:49:30;56181.84;;;-140.56;77.28
10482;BME280;5288;42.334;23.876;2022-09-09T00:52:12;56195.69;;;-140.56;77.12
10482;BME280;5288;42.334;23.876;2022-09-09T00:54:49;56203.59;;;-140.56;77.16
10482;BME280;5288;42.334;23.876;2022-09-09T00:57:27;56209.50;;;-140.56;77.25
10482;BME280;5288;42.334;23.876;2022-09-09T01:00:17;56207.53;;;-140.56;77.16
10482;BME280;5288;42.334;23.876;2022-09-09T01:02:57;56239.16;;;-140.56;77.47
10482;BME280;5288;42.334;23.876;2022-09-09T01:05:33;56223.34;;;-140.56;77.75
10482;BME280;5288;42.334;23.876;2022-09-09T01:08:07;56223.34;;;-140.56;78.01
10482;BME280;5288;42.334;23.876;2022-09-09T01:10:43;56225.31;;;-140.56;77.90
10482;BME280;5288;42.334;23.876;2022-09-09T01:13:22;56205.56;;;-140.56;77.93
10482;BME280;5288;42.334;23.876;2022-09-09T01:15:50;56205.56;;;-140.56;78.57
10482;BME280;5288;42.334;23.876;2022-09-09T01:18:20;56219.41;;;-140.56;78.37
10482;BME280;5288;42.334;23.876;2022-09-09T01:20:55;56217.41;;;-140.56;78.10
10482;BME280;5288;42.334;23.876;2022-09-09T01:23:40;56207.53;;;-140.56;77.99
10482;BME280;5288;42.334;23.876;2022-09-09T01:26:14;56241.13;;;-140.56;77.50
10482;BME280;5288;42.334;23.876;2022-09-09T01:28:44;56205.56;;;-140.56;77.70
10482;BME280;5288;42.334;23.876;2022-09-09T01:31:17;56231.25;;;-140.56;77.44
10482;BME280;5288;42.334;23.876;2022-09-09T01:33:44;56203.59;;;-140.56;77.54
10482;BME280;5288;42.334;23.876;2022-09-09T01:36:14;56205.56;;;-140.56;77.65
10482;BME280;5288;42.334;23.876;2022-09-09T01:38:45;56179.88;;;-140.56;77.38
10482;BME280;5288;42.334;23.876;2022-09-09T01:41:14;56199.63;;;-140.56;77.12
10482;BME280;5288;42.334;23.876;2022-09-09T01:43:42;56193.72;;;-140.56;77.03
10482;BME280;5288;42.334;23.876;2022-09-09T01:46:12;56213.47;;;-140.56;76.80
10482;BME280;5288;42.334;23.876;2022-09-09T01:48:41;56223.34;;;-140.56;76.54
10482;BME280;5288;42.334;23.876;2022-09-09T01:51:11;56229.28;;;-140.56;76.41
10482;BME280;5288;42.334;23.876;2022-09-09T01:53:39;56209.50;;;-140.56;76.46
10482;BME280;5288;42.334;23.876;2022-09-09T01:56:20;56239.16;;;-140.56;76.62
10482;BME280;5288;42.334;23.876;2022-09-09T01:59:00;56233.22;;;-140.56;77.10
10482;BME280;5288;42.334;23.876;2022-09-09T02:01:41;56229.28;;;-140.56;77.12
10482;BME280;5288;42.334;23.876;2022-09-09T02:04:20;56241.13;;;-140.56;77.02
10482;BME280;5288;42.334;23.876;2022-09-09T02:06:52;56254.97;;;-140.56;77.07
10482;BME280;5288;42.334;23.876;2022-09-09T02:09:24;56217.41;;;-140.56;77.33
10482;BME280;5288;42.334;23.876;2022-09-09T02:11:57;56270.78;;;-140.56;77.34
10482;BME280;5288;42.334;23.876;2022-09-09T02:14:28;56211.50;;;-140.56;77.42
10482;BME280;5288;42.334;23.876;2022-09-09T02:17:01;56229.28;;;-140.56;76.75
10482;BME280;5288;42.334;23.876;2022-09-09T02:19:32;56219.41;;;-140.56;76.91
10482;BME280;5288;42.334;23.876;2022-09-09T02:22:01;56229.28;;;-140.56;76.98
10482;BME280;5288;42.334;23.876;2022-09-09T02:24:32;56235.22;;;-140.56;77.03
10482;BME280;5288;42.334;23.876;2022-09-09T02:27:05;56203.59;;;-140.56;77.06
10482;BME280;5288;42.334;23.876;2022-09-09T02:29:36;56249.03;;;-140.56;77.06
10482;BME280;5288;42.334;23.876;2022-09-09T02:32:07;56233.22;;;-140.56;77.13
10482;BME280;5288;42.334;23.876;2022-09-09T02:34:39;56231.25;;;-140.56;77.08
10482;BME280;5288;42.334;23.876;2022-09-09T02:37:08;56235.22;;;-140.56;77.11
10482;BME280;5288;42.334;23.876;2022-09-09T02:39:36;56235.22;;;-140.56;77.44
10482;BME280;5288;42.334;23.876;2022-09-09T02:42:05;56211.50;;;-140.56;77.55
10482;BME280;5288;42.334;23.876;2022-09-09T02:44:32;56209.50;;;-140.56;77.62
10482;BME280;5288;42.334;23.876;2022-09-09T02:47:20;56233.22;;;-140.56;77.58
10482;BME280;5288;42.334;23.876;2022-09-09T02:50:01;56245.09;;;-140.56;77.73
10482;BME280;5288;42.334;23.876;2022-09-09T02:52:35;56235.22;;;-140.56;77.63
10482;BME280;5288;42.334;23.876;2022-09-09T02:55:09;56239.16;;;-140.56;77.75
10482;BME280;5288;42.334;23.876;2022-09-09T02:57:40;56227.31;;;-140.56;77.46
10482;BME280;5288;42.334;23.876;2022-09-09T03:00:11;56245.09;;;-140.56;77.63
10482;BME280;5288;42.334;23.876;2022-09-09T03:02:39;56235.22;;;-140.56;77.42
10482;BME280;5288;42.334;23.876;2022-09-09T03:05:07;56209.50;;;-140.56;77.57
10482;BME280;5288;42.334;23.876;2022-09-09T03:07:34;56223.34;;;-140.56;77.80
10482;BME280;5288;42.334;23.876;2022-09-09T03:10:02;56268.81;;;-140.56;77.72
10482;BME280;5288;42.334;23.876;2022-09-09T03:12:29;56231.25;;;-140.56;77.70
10482;BME280;5288;42.334;23.876;2022-09-09T03:15:00;56247.06;;;-140.56;78.17
10482;BME280;5288;42.334;23.876;2022-09-09T03:17:27;56251.03;;;-140.56;78.09
10482;BME280;5288;42.334;23.876;2022-09-09T03:19:54;56254.97;;;-140.56;77.81
10482;BME280;5288;42.334;23.876;2022-09-09T03:22:24;56245.09;;;-140.56;78.13
10482;BME280;5288;42.334;23.876;2022-09-09T03:24:51;56241.13;;;-140.56;78.33
10482;BME280;5288;42.334;23.876;2022-09-09T03:27:19;56243.13;;;-140.56;78.39
10482;BME280;5288;42.334;23.876;2022-09-09T03:29:46;56237.19;;;-140.56;78.29
10482;BME280;5288;42.334;23.876;2022-09-09T03:32:18;56227.31;;;-140.56;78.07
10482;BME280;5288;42.334;23.876;2022-09-09T03:34:47;56233.22;;;-140.56;78.53
10482;BME280;5288;42.334;23.876;2022-09-09T03:37:15;56209.50;;;-140.56;78.28
10482;BME280;5288;42.334;23.876;2022-09-09T03:39:43;56243.13;;;-140.56;78.50
10482;BME280;5288;42.334;23.876;2022-09-09T03:42:12;56254.97;;;-140.56;77.87
10482;BME280;5288;42.334;23.876;2022-09-09T03:44:44;56229.28;;;-140.56;78.05
10482;BME280;5288;42.334;23.876;2022-09-09T03:47:15;56258.94;;;-140.56;77.92
10482;BME280;5288;42.334;23.876;2022-09-09T03:49:44;56247.06;;;-140.56;78.17
10482;BME280;5288;42.334;23.876;2022-09-09T03:52:11;56239.16;;;-140.56;78.15
10482;BME280;5288;42.334;23.876;2022-09-09T03:54:38;56253.00;;;-140.56;78.41
10482;BME280;5288;42.334;23.876;2022-09-09T03:57:08;56213.47;;;-140.56;78.53
10482;BME280;5288;42.334;23.876;2022-09-09T03:59:35;56225.31;;;-140.56;78.54
10482;BME280;5288;42.334;23.876;2022-09-09T04:02:03;56233.22;;;-140.56;78.30
10482;BME280;5288;42.334;23.876;2022-09-09T04:04:30;56262.88;;;-140.56;78.13
10482;BME280;5288;42.334;23.876;2022-09-09T04:06:59;56253.00;;;-140.56;78.27
10482;BME280;5288;42.334;23.876;2022-09-09T04:09:26;56225.31;;;-140.56;78.34
10482;BME280;5288;42.334;23.876;2022-09-09T04:11:53;56199.63;;;-140.56;78.42
10482;BME280;5288;42.334;23.876;2022-09-09T04:14:20;56276.72;;;-140.56;78.72
10482;BME280;5288;42.334;23.876;2022-09-09T04:16:47;56239.16;;;-140.56;78.91
10482;BME280;5288;42.334;23.876;2022-09-09T04:19:14;56251.03;;;-140.56;78.87
10482;BME280;5288;42.334;23.876;2022-09-09T04:21:41;56227.31;;;-140.56;79.22
10482;BME280;5288;42.334;23.876;2022-09-09T04:24:10;56231.25;;;-140.56;79.36
10482;BME280;5288;42.334;23.876;2022-09-09T04:26:37;56247.06;;;-140.56;79.41
10482;BME280;5288;42.334;23.876;2022-09-09T04:29:04;56247.06;;;-140.56;79.51
10482;BME280;5288;42.334;23.876;2022-09-09T04:31:32;56260.91;;;-140.56;79.56
10482;BME280;5288;42.334;23.876;2022-09-09T04:33:59;56256.94;;;-140.56;79.56
10482;BME280;5288;42.334;23.876;2022-09-09T04:36:30;56229.28;;;-140.56;79.79
10482;BME280;5288;42.334;23.876;2022-09-09T04:38:58;56233.22;;;-140.56;79.81
10482;BME280;5288;42.334;23.876;2022-09-09T04:41:26;56247.06;;;-140.56;79.77
10482;BME280;5288;42.334;23.876;2022-09-09T04:43:54;56247.06;;;-140.56;79.61
10482;BME280;5288;42.334;23.876;2022-09-09T04:46:21;56254.97;;;-140.56;79.93
10482;BME280;5288;42.334;23.876;2022-09-09T04:48:52;56247.06;;;-140.56;80.09
10482;BME280;5288;42.334;23.876;2022-09-09T04:51:19;56231.25;;;-140.56;80.14
10482;BME280;5288;42.334;23.876;2022-09-09T04:53:47;56227.31;;;-140.56;80.87
10482;BME280;5288;42.334;23.876;2022-09-09T04:56:16;56254.97;;;-140.56;81.32
10482;BME280;5288;42.334;23.876;2022-09-09T04:58:45;56258.94;;;-140.56;81.34
10482;BME280;5288;42.334;23.876;2022-09-09T05:01:14;56280.66;;;-140.56;81.32
10482;BME280;5288;42.334;23.876;2022-09-09T05:03:43;56274.72;;;-140.56;81.49
10482;BME280;5288;42.334;23.876;2022-09-09T05:06:12;56260.91;;;-140.56;82.08
10482;BME280;5288;42.334;23.876;2022-09-09T05:08:43;56225.31;;;-140.56;82.21
10482;BME280;5288;42.334;23.876;2022-09-09T05:11:16;56253.00;;;-140.56;81.95
10482;BME280;5288;42.334;23.876;2022-09-09T05:13:45;56249.03;;;-140.56;81.79
10482;BME280;5288;42.334;23.876;2022-09-09T05:16:13;56225.31;;;-140.56;82.21
10482;BME280;5288;42.334;23.876;2022-09-09T05:18:41;56258.94;;;-140.56;82.41
10482;BME280;5288;42.334;23.876;2022-09-09T05:21:08;56260.91;;;-140.56;82.23
10482;BME280;5288;42.334;23.876;2022-09-09T05:23:37;56213.47;;;-140.56;82.33
10482;BME280;5288;42.334;23.876;2022-09-09T05:26:06;56219.41;;;-140.56;82.66
10482;BME280;5288;42.334;23.876;2022-09-09T05:28:36;56249.03;;;-140.56;82.52
10482;BME280;5288;42.334;23.876;2022-09-09T05:31:05;56215.44;;;-140.56;82.66
10482;BME280;5288;42.334;23.876;2022-09-09T05:33:35;56227.31;;;-140.56;82.39
10482;BME280;5288;42.334;23.876;2022-09-09T05:36:04;56258.94;;;-140.56;82.21
10482;BME280;5288;42.334;23.876;2022-09-09T05:38:32;56207.53;;;-140.56;81.74
10482;BME280;5288;42.334;23.876;2022-09-09T05:41:00;56237.19;;;-140.56;81.86
10482;BME280;5288;42.334;23.876;2022-09-09T05:43:28;56207.53;;;-140.56;81.79
10482;BME280;5288;42.334;23.876;2022-09-09T05:46:02;56229.28;;;-140.56;81.27
10482;BME280;5288;42.334;23.876;2022-09-09T05:48:32;56225.31;;;-140.56;80.77
10482;BME280;5288;42.334;23.876;2022-09-09T05:51:00;56207.53;;;-140.56;80.70
10482;BME280;5288;42.334;23.876;2022-09-09T05:53:28;56219.41;;;-140.56;80.55
10482;BME280;5288;42.334;23.876;2022-09-09T05:56:03;56227.31;;;-140.56;79.70
10482;BME280;5288;42.334;23.876;2022-09-09T05:58:31;56215.44;;;-140.56;78.94
10482;BME280;5288;42.334;23.876;2022-09-09T06:01:02;56207.53;;;-140.56;77.83
10482;BME280;5288;42.334;23.876;2022-09-09T06:03:31;56177.91;;;-140.56;77.58
10482;BME280;5288;42.334;23.876;2022-09-09T06:05:59;56187.78;;;-140.56;77.21
10482;BME280;5288;42.334;23.876;2022-09-09T06:08:27;56197.66;;;-140.56;75.69
10482;BME280;5288;42.334;23.876;2022-09-09T06:11:03;56173.94;;;-140.56;75.71
10482;BME280;5288;42.334;23.876;2022-09-09T06:13:31;56183.81;;;-140.56;75.69
10482;BME280;5288;42.334;23.876;2022-09-09T06:15:59;56197.66;;;-140.56;75.31
10482;BME280;5288;42.334;23.876;2022-09-09T06:18:26;56160.13;;;-140.56;75.52
10482;BME280;5288;42.334;23.876;2022-09-09T06:20:56;56175.91;;;-140.56;75.73
10482;BME280;5288;42.334;23.876;2022-09-09T06:23:24;56164.06;;;-140.56;75.00
10482;BME280;5288;42.334;23.876;2022-09-09T06:25:59;56164.06;;;-140.56;74.58
10482;BME280;5288;42.334;23.876;2022-09-09T06:28:27;56148.25;;;-140.56;74.40
10482;BME280;5288;42.334;23.876;2022-09-09T06:30:57;56142.31;;;-140.56;73.88
10482;BME280;5288;42.334;23.876;2022-09-09T06:33:25;56122.56;;;-140.56;72.15
10482;BME280;5288;42.334;23.876;2022-09-09T06:35:54;56138.38;;;-140.56;70.78
10482;BME280;5288;42.334;23.876;2022-09-09T06:38:23;56122.56;;;-140.56;70.64
10482;BME280;5288;42.334;23.876;2022-09-09T06:40:52;56136.41;;;-140.56;69.93
10482;BME280;5288;42.334;23.876;2022-09-09T06:43:20;56124.53;;;-140.56;69.05
10482;BME280;5288;42.334;23.876;2022-09-09T06:45:53;56110.72;;;-140.56;68.73
10482;BME280;5288;42.334;23.876;2022-09-09T06:48:21;56088.97;;;-140.56;67.15
10482;BME280;5288;42.334;23.876;2022-09-09T06:50:49;56116.63;;;-140.56;66.14
10482;BME280;5288;42.334;23.876;2022-09-09T06:53:18;56104.78;;;-140.56;65.63
10482;BME280;5288;42.334;23.876;2022-09-09T06:55:51;56120.59;;;-140.56;65.17
10482;BME280;5288;42.334;23.876;2022-09-09T06:58:23;56087.00;;;-140.56;64.84
10482;BME280;5288;42.334;23.876;2022-09-09T07:00:50;56096.88;;;-140.56;63.75
10482;BME280;5288;42.334;23.876;2022-09-09T07:03:18;56083.03;;;-140.56;62.92
10482;BME280;5288;42.334;23.876;2022-09-09T07:05:54;56071.19;;;-140.56;62.70
10482;BME280;5288;42.334;23.876;2022-09-09T07:08:23;56063.28;;;-140.56;61.97
10482;BME280;5288;42.334;23.876;2022-09-09T07:10:51;56071.19;;;-140.56;61.67
10482;BME280;5288;42.334;23.876;2022-09-09T07:13:19;56085.00;;;-140.56;61.63
10482;BME280;5288;42.334;23.876;2022-09-09T07:15:49;56065.25;;;-140.56;60.07
10482;BME280;5288;42.334;23.876;2022-09-09T07:18:17;56077.09;;;-140.56;60.61
10482;BME280;5288;42.334;23.876;2022-09-09T07:20:52;56049.44;;;-140.56;59.94
10482;BME280;5288;42.334;23.876;2022-09-09T07:23:23;56061.31;;;-140.56;59.43
10482;BME280;5288;42.334;23.876;2022-09-09T07:25:50;56053.41;;;-140.56;59.57
10482;BME280;5288;42.334;23.876;2022-09-09T07:28:18;56053.41;;;-140.56;58.69
10482;BME280;5288;42.334;23.876;2022-09-09T07:30:53;56000.03;;;-140.56;58.58
10482;BME280;5288;42.334;23.876;2022-09-09T07:33:20;56057.34;;;-140.56;57.60
10482;BME280;5288;42.334;23.876;2022-09-09T07:35:46;56043.50;;;-140.56;57.72
10482;BME280;5288;42.334;23.876;2022-09-09T07:38:14;56035.63;;;-140.56;57.82
10482;BME280;5288;42.334;23.876;2022-09-09T07:40:43;56029.69;;;-140.56;56.47
10482;BME280;5288;42.334;23.876;2022-09-09T07:43:10;56027.72;;;-140.56;56.58
10482;BME280;5288;42.334;23.876;2022-09-09T07:45:37;56009.91;;;-140.56;56.47
10482;BME280;5288;42.334;23.876;2022-09-09T07:48:06;56000.03;;;-140.56;55.89
10482;BME280;5288;42.334;23.876;2022-09-09T07:50:33;56009.91;;;-140.56;56.90
10482;BME280;5288;42.334;23.876;2022-09-09T07:53:00;56005.97;;;-140.56;55.33
10482;BME280;5288;42.334;23.876;2022-09-09T07:55:28;56009.91;;;-140.56;55.46
10482;BME280;5288;42.334;23.876;2022-09-09T07:57:57;56009.91;;;-140.56;55.14
10482;BME280;5288;42.334;23.876;2022-09-09T08:00:24;55980.28;;;-140.56;55.62
10482;BME280;5288;42.334;23.876;2022-09-09T08:02:52;55950.63;;;-140.56;53.94
10482;BME280;5288;42.334;23.876;2022-09-09T08:05:20;55982.25;;;-140.56;52.92
10482;BME280;5288;42.334;23.876;2022-09-09T08:07:47;55960.53;;;-140.56;52.97
10482;BME280;5288;42.334;23.876;2022-09-09T08:10:15;55946.69;;;-140.56;52.81
10482;BME280;5288;42.334;23.876;2022-09-09T08:12:43;56000.03;;;-140.56;52.46
10482;BME280;5288;42.334;23.876;2022-09-09T08:15:11;55972.38;;;-140.56;53.54
10482;BME280;5288;42.334;23.876;2022-09-09T08:17:39;55972.38;;;-140.56;52.59
10482;BME280;5288;42.334;23.876;2022-09-09T08:20:06;55956.56;;;-140.56;52.64
10482;BME280;5288;42.334;23.876;2022-09-09T08:22:33;55984.22;;;-140.56;52.51
10482;BME280;5288;42.334;23.876;2022-09-09T08:25:00;55966.44;;;-140.56;52.06
10482;BME280;5288;42.334;23.876;2022-09-09T08:27:27;55970.41;;;-140.56;52.08
10482;BME280;5288;42.334;23.876;2022-09-09T08:29:55;55944.72;;;-140.56;51.79
10482;BME280;5288;42.334;23.876;2022-09-09T08:32:24;55968.41;;;-140.56;50.40
10482;BME280;5288;42.334;23.876;2022-09-09T08:34:51;55924.94;;;-140.56;50.54
10482;BME280;5288;42.334;23.876;2022-09-09T08:37:18;55954.59;;;-140.56;49.66
10482;BME280;5288;42.334;23.876;2022-09-09T08:39:47;55974.34;;;-140.56;50.40
10482;BME280;5288;42.334;23.876;2022-09-09T08:42:37;55954.59;;;-140.56;50.24
10482;BME280;5288;42.334;23.876;2022-09-09T08:45:24;55928.91;;;-140.56;48.95
10482;BME280;5288;42.334;23.876;2022-09-09T08:48:07;55948.66;;;-140.56;49.33
10482;BME280;5288;42.334;23.876;2022-09-09T08:50:38;55922.97;;;-140.56;48.50
10482;BME280;5288;42.334;23.876;2022-09-09T08:53:11;55956.56;;;-140.56;47.90
10482;BME280;5288;42.334;23.876;2022-09-09T08:55:45;55948.66;;;-140.56;47.77
10482;BME280;5288;42.334;23.876;2022-09-09T08:58:15;55930.88;;;-140.56;48.15
10482;BME280;5288;42.334;23.876;2022-09-09T09:00:51;55893.34;;;-140.56;47.51
10482;BME280;5288;42.334;23.876;2022-09-09T09:03:28;55883.44;;;-140.56;47.42
10482;BME280;5288;42.334;23.876;2022-09-09T09:06:04;55887.41;;;-140.56;45.85
10482;BME280;5288;42.334;23.876;2022-09-09T09:08:39;55921.00;;;-140.56;47.76
10482;BME280;5288;42.334;23.876;2022-09-09T09:11:10;55905.19;;;-140.56;45.77
10482;BME280;5288;42.334;23.876;2022-09-09T09:13:41;55895.31;;;-140.56;45.85
10482;BME280;5288;42.334;23.876;2022-09-09T09:16:18;55863.69;;;-140.56;46.02
10482;BME280;5288;42.334;23.876;2022-09-09T09:18:49;55873.56;;;-140.56;46.88
10482;BME280;5288;42.334;23.876;2022-09-09T09:21:21;55877.53;;;-140.56;43.54
10482;BME280;5288;42.334;23.876;2022-09-09T09:23:56;55883.44;;;-140.56;44.35
10482;BME280;5288;42.334;23.876;2022-09-09T09:26:27;55875.53;;;-140.56;44.69
10482;BME280;5288;42.334;23.876;2022-09-09T09:28:56;55887.41;;;-140.56;43.04
10482;BME280;5288;42.334;23.876;2022-09-09T09:31:25;55859.75;;;-140.56;44.03
10482;BME280;5288;42.334;23.876;2022-09-09T09:33:56;55871.59;;;-140.56;44.44
10482;BME280;5288;42.334;23.876;2022-09-09T09:36:33;55849.84;;;-140.56;44.45
10482;BME280;5288;42.334;23.876;2022-09-09T09:39:03;55845.91;;;-140.56;42.32
10482;BME280;5288;42.334;23.876;2022-09-09T09:41:32;55885.44;;;-140.56;42.73
10482;BME280;5288;42.334;23.876;2022-09-09T09:44:01;55883.44;;;-140.56;44.73
10482;BME280;5288;42.334;23.876;2022-09-09T09:46:30;55843.94;;;-140.56;43.05
10482;BME280;5288;42.334;23.876;2022-09-09T09:49:00;55853.81;;;-140.56;42.97
10482;BME280;5288;42.334;23.876;2022-09-09T09:51:29;55849.84;;;-140.56;43.49
10482;BME280;5288;42.334;23.876;2022-09-09T09:54:17;55824.16;;;-140.56;40.34
10482;BME280;5288;42.334;23.876;2022-09-09T09:56:46;55822.19;;;-140.56;40.97
10482;BME280;5288;42.334;23.876;2022-09-09T09:59:33;55845.91;;;-140.56;41.79
10482;BME280;5288;42.334;23.876;2022-09-09T10:02:19;55851.84;;;-140.56;42.13
10482;BME280;5288;42.334;23.876;2022-09-09T10:05:00;55834.06;;;-140.56;45.10
10482;BME280;5288;42.334;23.876;2022-09-09T10:07:27;55843.94;;;-140.56;40.11
10482;BME280;5288;42.334;23.876;2022-09-09T10:09:57;55816.25;;;-140.56;41.56
10482;BME280;5288;42.334;23.876;2022-09-09T10:12:36;55838.00;;;-140.56;41.71
10482;BME280;5288;42.334;23.876;2022-09-09T10:15:23;55857.75;;;-140.56;41.94
10482;BME280;5288;42.334;23.876;2022-09-09T10:17:57;55867.63;;;-140.56;42.30
10482;BME280;5288;42.334;23.876;2022-09-09T10:20:35;55907.16;;;-140.56;42.32
10482;BME280;5288;42.334;23.876;2022-09-09T10:23:13;55921.00;;;-140.56;43.23
10482;BME280;5288;42.334;23.876;2022-09-09T10:25:59;55887.41;;;-140.56;43.58
10482;BME280;5288;42.334;23.876;2022-09-09T10:28:40;55917.03;;;-140.56;43.22
10482;BME280;5288;42.334;23.876;2022-09-09T10:31:18;55911.13;;;-140.56;43.19
10482;BME280;5288;42.334;23.876;2022-09-09T10:33:50;55887.41;;;-140.56;43.31
10482;BME280;5288;42.334;23.876;2022-09-09T10:36:21;55883.44;;;-140.56;42.75
10482;BME280;5288;42.334;23.876;2022-09-09T10:38:57;55875.53;;;-140.56;43.34
10482;BME280;5288;42.334;23.876;2022-09-09T10:41:44;55855.78;;;-140.56;42.20
10482;BME280;5288;42.334;23.876;2022-09-09T10:44:24;55820.22;;;-140.56;40.92
10482;BME280;5288;42.334;23.876;2022-09-09T10:47:09;55851.84;;;-140.56;43.58
10482;BME280;5288;42.334;23.876;2022-09-09T10:50:04;55820.22;;;-140.56;41.45
10482;BME280;5288;42.334;23.876;2022-09-09T10:52:42;55824.16;;;-140.56;42.34
10482;BME280;5288;42.334;23.876;2022-09-09T10:55:17;55824.16;;;-140.56;41.50
10482;BME280;5288;42.334;23.876;2022-09-09T10:57:46;55836.03;;;-140.56;41.61
10482;BME280;5288;42.334;23.876;2022-09-09T11:00:17;55836.03;;;-140.56;41.61
10482;BME280;5288;42.334;23.876;2022-09-09T11:02:51;55832.06;;;-140.56;41.62
10482;BME280;5288;42.334;23.876;2022-09-09T11:05:21;55832.06;;;-140.56;40.94
10482;BME280;5288;42.334;23.876;2022-09-09T11:07:56;55824.16;;;-140.56;41.75
10482;BME280;5288;42.334;23.876;2022-09-09T11:10:28;55826.16;;;-140.56;41.91
10482;BME280;5288;42.334;23.876;2022-09-09T11:13:03;55812.31;;;-140.56;41.06
10482;BME280;5288;42.334;23.876;2022-09-09T11:15:41;55790.56;;;-140.56;41.92
10482;BME280;5288;42.334;23.876;2022-09-09T11:18:12;55804.41;;;-140.56;40.17
10482;BME280;5288;42.334;23.876;2022-09-09T11:20:41;55770.81;;;-140.56;40.35
10482;BME280;5288;42.334;23.876;2022-09-09T11:23:14;55802.44;;;-140.56;39.30
10482;BME280;5288;42.334;23.876;2022-09-09T11:25:45;55784.66;;;-140.56;39.96
10482;BME280;5288;42.334;23.876;2022-09-09T11:28:31;55828.13;;;-140.56;39.30
10482;BME280;5288;42.334;23.876;2022-09-09T11:31:21;55766.88;;;-140.56;40.83
10482;BME280;5288;42.334;23.876;2022-09-09T11:37:00;55820.22;;;-140.56;41.03
10482;BME280;5288;42.334;23.876;2022-09-09T11:39:48;55812.31;;;-140.56;41.30
10482;BME280;5288;42.334;23.876;2022-09-09T11:42:22;55820.22;;;-140.56;40.94
10482;BME280;5288;42.334;23.876;2022-09-09T11:44:50;55816.25;;;-140.56;41.14
10482;BME280;5288;42.334;23.876;2022-09-09T11:47:22;55843.94;;;-140.56;41.25
10482;BME280;5288;42.334;23.876;2022-09-09T11:49:51;55875.53;;;-140.56;42.69
10482;BME280;5288;42.334;23.876;2022-09-09T11:52:24;55883.44;;;-140.56;43.02
10482;BME280;5288;42.334;23.876;2022-09-09T11:54:55;55873.56;;;-140.56;43.56
10482;BME280;5288;42.334;23.876;2022-09-09T11:57:29;55887.41;;;-140.56;43.97
10482;BME280;5288;42.334;23.876;2022-09-09T11:59:57;55921.00;;;-140.56;44.22
10482;BME280;5288;42.334;23.876;2022-09-09T12:02:26;55891.34;;;-140.56;44.38
10482;BME280;5288;42.334;23.876;2022-09-09T12:05:00;55859.75;;;-140.56;44.06
10482;BME280;5288;42.334;23.876;2022-09-09T12:07:36;55889.38;;;-140.56;44.63
10482;BME280;5288;42.334;23.876;2022-09-09T12:10:22;55865.66;;;-140.56;43.89
10482;BME280;5288;42.334;23.876;2022-09-09T12:12:51;55871.59;;;-140.56;43.49
10482;BME280;5288;42.334;23.876;2022-09-09T12:15:27;55836.03;;;-140.56;43.81
10482;BME280;5288;42.334;23.876;2022-09-09T12:17:58;55847.88;;;-140.56;42.69
10482;BME280;5288;42.334;23.876;2022-09-09T12:20:33;55812.31;;;-140.56;43.23
10482;BME280;5288;42.334;23.876;2022-09-09T12:23:25;55828.13;;;-140.56;42.87
10482;BME280;5288;42.334;23.876;2022-09-09T12:28:57;55853.81;;;-140.56;43.10
10482;BME280;5288;42.334;23.876;2022-09-09T12:31:32;55853.81;;;-140.56;43.74
10482;BME280;5288;42.334;23.876;2022-09-09T12:34:10;55804.41;;;-140.56;43.66
10482;BME280;5288;42.334;23.876;2022-09-09T12:36:39;55822.19;;;-140.56;43.53
10482;BME280;5288;42.334;23.876;2022-09-09T12:39:19;55814.28;;;-140.56;43.90
10482;BME280;5288;42.334;23.876;2022-09-09T12:41:53;55855.78;;;-140.56;44.76
10482;BME280;5288;42.334;23.876;2022-09-09T12:44:24;55839.97;;;-140.56;44.32
10482;BME280;5288;42.334;23.876;2022-09-09T12:46:52;55847.88;;;-140.56;44.36
10482;BME280;5288;42.334;23.876;2022-09-09T12:49:31;55832.06;;;-140.56;44.75
10482;BME280;5288;42.334;23.876;2022-09-09T12:52:02;55839.97;;;-140.56;43.97
10482;BME280;5288;42.334;23.876;2022-09-09T12:54:32;55839.97;;;-140.56;44.92
10482;BME280;5288;42.334;23.876;2022-09-09T12:57:01;55843.94;;;-140.56;44.10
10482;BME280;5288;42.334;23.876;2022-09-09T12:59:36;55839.97;;;-140.56;44.33
10482;BME280;5288;42.334;23.876;2022-09-09T13:02:16;55824.16;;;-140.56;44.44
10482;BME280;5288;42.334;23.876;2022-09-09T13:04:45;55812.31;;;-140.56;43.93
10482;BME280;5288;42.334;23.876;2022-09-09T13:20:02;55832.06;;;-140.56;44.40
10482;BME280;5288;42.334;23.876;2022-09-09T13:22:35;55845.91;;;-140.56;44.87
10482;BME280;5288;42.334;23.876;2022-09-09T13:25:23;55845.91;;;-140.56;45.67